Puget — AEQW — position and weather

sailwx.info

Track history (hours):
 
Tides and Currents Weather Stations Pressure Air Temp Water Temp Dewpoint Dewpoint Depression Visibility Wind Speed Wind Dir Waves Ship Positions

Puget

Last reported at 2014-Aug-27 15:05 UTC. Time now 2014-Aug-28 03:20 UTC.
Position N 47°40' W 122°24'.

Length 20 m; draft 0.2 m.

Type: Ship. MMSI: 369970510.

Date/timePositionNaut miles runAvg speedWind from/ knotsBaromVisibWave heightAir tempDewpointWater temp
2014-Aug-27 15:05N 47°40' W 122°24'0 0.3
2014-Aug-27 14:33N 47°40' W 122°24'  
2014-Aug-21 22:33N 47°40' W 122°24'0 0.0
2014-Aug-21 21:33N 47°40' W 122°24'2 2.5
2014-Aug-21 20:33N 47°42' W 122°25'8 7.9
2014-Aug-21 19:33N 47°50' W 122°23'8 8.1
2014-Aug-21 18:33N 47°58' W 122°20'8 8.0
2014-Aug-21 17:33N 48°05' W 122°26'12 8.0
2014-Aug-21 16:04N 48°16' W 122°31'4 8.4
2014-Aug-21 15:33N 48°20' W 122°32'4 0.2
2014-Aug-20 23:28N 48°24' W 122°30'6 6.1
2014-Aug-20 22:33N 48°29' W 122°32'8 7.7
2014-Aug-20 21:33N 48°37' W 122°34'4 3.7
2014-Aug-20 20:31N 48°41' W 122°33'6 5.9
2014-Aug-20 19:30N 48°44' W 122°41'4 4.3
2014-Aug-20 18:33N 48°47' W 122°44'8 7.6
2014-Aug-20 17:33N 48°40' W 122°41'8 7.7
2014-Aug-20 16:33N 48°33' W 122°35'8 7.6
2014-Aug-20 15:33N 48°26' W 122°30'2 2.5
2014-Aug-20 14:33N 48°24' W 122°30'0 0.0
2014-Aug-20 00:17N 48°24' W 122°30'4 6.0
2014-Aug-19 23:33N 48°28' W 122°31'8 8.3
2014-Aug-19 22:33N 48°31' W 122°43'8 8.1
2014-Aug-19 21:33N 48°33' W 122°55'8 7.5
2014-Aug-19 20:30N 48°37' W 123°06'0 0.2
2014-Aug-19 19:12N 48°37' W 123°06'2 3.3
2014-Aug-19 18:33N 48°35' W 123°04'7 7.4
2014-Aug-19 17:32N 48°35' W 122°52'8 8.5
2014-Aug-19 16:33N 48°31' W 122°41'7 6.9
2014-Aug-19 15:33N 48°28' W 122°32'6 0.4
2014-Aug-18 22:31N 48°22' W 122°31'21 7.1
2014-Aug-18 19:31N 48°02' W 122°22'8 8.2
2014-Aug-18 18:33N 47°54' W 122°22'9 8.6
2014-Aug-18 17:33N 47°46' W 122°25'4 4.0
2014-Aug-18 16:33N 47°42' W 122°26'3 3.0
2014-Aug-18 15:33N 47°40' W 122°23'  
Track history (hours):
 
Tides and Currents Weather Stations Pressure Air Temp Water Temp Dewpoint Dewpoint Depression Visibility Wind Speed Wind Dir Waves Ship Positions

Puget

Last reported at 2014-Aug-27 15:05 UTC. Time now 2014-Aug-28 03:20 UTC.
Position N 47°40' W 122°24'.

Length 20 m; draft 0.2 m.

Type: Ship. MMSI: 369970510.

Date/timePositionNaut miles runAvg speedWind from/ knotsBaromVisibWave heightAir tempDewpointWater temp
2014-Aug-27 15:05N 47°40' W 122°24'0 0.3
2014-Aug-27 14:33N 47°40' W 122°24'  
2014-Aug-21 22:33N 47°40' W 122°24'0 0.0
2014-Aug-21 21:33N 47°40' W 122°24'2 2.5
2014-Aug-21 20:33N 47°42' W 122°25'8 7.9
2014-Aug-21 19:33N 47°50' W 122°23'8 8.1
2014-Aug-21 18:33N 47°58' W 122°20'8 8.0
2014-Aug-21 17:33N 48°05' W 122°26'12 8.0
2014-Aug-21 16:04N 48°16' W 122°31'4 8.4
2014-Aug-21 15:33N 48°20' W 122°32'4 0.2
2014-Aug-20 23:28N 48°24' W 122°30'6 6.1
2014-Aug-20 22:33N 48°29' W 122°32'8 7.7
2014-Aug-20 21:33N 48°37' W 122°34'4 3.7
2014-Aug-20 20:31N 48°41' W 122°33'6 5.9
2014-Aug-20 19:30N 48°44' W 122°41'4 4.3
2014-Aug-20 18:33N 48°47' W 122°44'8 7.6
2014-Aug-20 17:33N 48°40' W 122°41'8 7.7
2014-Aug-20 16:33N 48°33' W 122°35'8 7.6
2014-Aug-20 15:33N 48°26' W 122°30'2 2.5
2014-Aug-20 14:33N 48°24' W 122°30'0 0.0
2014-Aug-20 00:17N 48°24' W 122°30'4 6.0
2014-Aug-19 23:33N 48°28' W 122°31'8 8.3
2014-Aug-19 22:33N 48°31' W 122°43'8 8.1
2014-Aug-19 21:33N 48°33' W 122°55'8 7.5
2014-Aug-19 20:30N 48°37' W 123°06'0 0.2
2014-Aug-19 19:12N 48°37' W 123°06'2 3.3
2014-Aug-19 18:33N 48°35' W 123°04'7 7.4
2014-Aug-19 17:32N 48°35' W 122°52'8 8.5
2014-Aug-19 16:33N 48°31' W 122°41'7 6.9
2014-Aug-19 15:33N 48°28' W 122°32'6 0.4
2014-Aug-18 22:31N 48°22' W 122°31'21 7.1
2014-Aug-18 19:31N 48°02' W 122°22'8 8.2
2014-Aug-18 18:33N 47°54' W 122°22'9 8.6
2014-Aug-18 17:33N 47°46' W 122°25'4 4.0
2014-Aug-18 16:33N 47°42' W 122°26'3 3.0
2014-Aug-18 15:33N 47°40' W 122°23'  

Dump ship's entire track history